This is the latest recevied weather packets stored in our database for station/object WJ4X-13. If no packets are shown the sender has not sent any weather packets the latest 10 day(s).
| Time | Temp. | Humidity | Pressure | Rain* | Wind** | Luminosity | Snow |
|---|---|---|---|---|---|---|---|
| 1778157026 | 17.78° C | 100% | 1011.2 hPa | 12.7 mm | - | - | - |
| 1778150708 | 17.78° C | 100% | 1010.7 hPa | 1.52 mm | - | - | - |
| 1778146262 | 17.78° C | 100% | 1011.6 hPa | 1.02 mm | - | - | - |
| 1778143556 | 17.78° C | 100% | 1012.1 hPa | 0.76 mm | - | - | - |
| 1778142656 | 17.78° C | 100% | 1012.1 hPa | 0.76 mm | - | - | - |
| 1778139957 | 17.78° C | 99% | 1012.1 hPa | 1.78 mm | - | - | - |
| 1778139052 | 17.78° C | 99% | 1012 hPa | 2.03 mm | - | - | - |
| 1778132748 | 17.78° C | 99% | 1013.5 hPa | 0 mm | - | - | - |
| 1778131845 | 17.78° C | 99% | 1013.3 hPa | 0.25 mm | - | - | - |
| 1778123731 | 17.78° C | 98% | 1014.4 hPa | 9.4 mm | - | - | - |
| 1778121031 | 18.33° C | 97% | 1015.3 hPa | 4.57 mm | - | - | - |
| 1778117440 | 18.89° C | 95% | 1014.7 hPa | 8.13 mm | - | - | - |
| 1778103911 | 28.33° C | 63% | 1012.6 hPa | 0 mm | - | - | - |
| 1778100306 | 27.78° C | 62% | 1013.4 hPa | 0 mm | - | - | - |
| 1778078715 | 19.44° C | 85% | 1016.2 hPa | 0 mm | - | - | - |
| 1778070657 | 16.11° C | 92% | 1015.9 hPa | 0 mm | - | - | - |
| 1778068854 | 15.56° C | 93% | 1016.2 hPa | 0 mm | - | - | - |
| 1778066121 | 15.56° C | 92% | 1015.7 hPa | 0 mm | - | - | - |
| 1778063447 | 15.56° C | 91% | 1014.5 hPa | 0 mm | - | - | - |
| 1778058035 | 16.11° C | 87% | 1014.8 hPa | 0 mm | - | - | - |
| 1778056233 | 16.67° C | 87% | 1015.5 hPa | 0 mm | - | - | - |
| 1778053532 | 16.67° C | 88% | 1015.6 hPa | 0 mm | - | - | - |
| 1778047228 | 16.11° C | 86% | 1015.4 hPa | 0 mm | - | - | - |
| 1778039111 | 16.11° C | 83% | 1015.5 hPa | 0 mm | - | - | - |
| 1778038215 | 16.11° C | 79% | 1015.4 hPa | 0 mm | - | - | - |
* Rain latest hour (hover to see other rain measurements)
** Current wind speed in m/s (hover to see current wind gust speed)